Time;durP1;ratioP1;P1;durP2;ratioP2;P2;SDS_P1;SDS_P2;PMS_P1;PMS_P2;Temp;Humidity;BMP_temperature;BMP_pressure;BME280_temperature;BME280_humidity;BME280_pressure;Samples;Min_cycle;Max_cycle;Signal;HPM_P1;HPM_P2
2022/05/30 00:03:21;;;;;;;6.68;0.52;;;;;;;8.03;46.87;101219.25;4867064;29;20060;-75
2022/05/30 00:11:09;;;;;;;3.70;0.40;;;;;;;8.06;46.82;101208.75;4789879;29;20366;-77
2022/05/30 00:14:37;;;;;;;2.95;0.50;;;;;;;8.08;46.74;101209.56;4788183;29;20167;-78
2022/05/30 00:17:38;;;;;;;5.75;0.40;;;;;;;8.01;46.67;101215.81;4803038;29;20032;-78
2022/05/30 00:20:36;;;;;;;4.28;0.30;;;;;;;7.91;47.07;101219.53;4946989;28;20146;-76
2022/05/30 00:35:51;;;;;;;1.13;0.20;;;;;;;7.35;49.51;101206.00;4929802;29;20218;-75
2022/05/30 00:47:02;;;;;;;3.88;0.50;;;;;;;7.01;50.39;101191.09;4907429;29;20100;-75
2022/05/30 00:50:23;;;;;;;2.78;0.20;;;;;;;7.14;50.41;101192.56;4908725;29;20472;-75
2022/05/30 01:08:31;;;;;;;3.80;0.40;;;;;;;6.67;49.89;101199.56;4912844;28;20197;-77
2022/05/30 01:11:52;;;;;;;1.83;0.30;;;;;;;6.55;50.54;101195.44;4974059;28;20042;-75
2022/05/30 01:19:14;;;;;;;2.08;0.38;;;;;;;6.16;52.22;101194.34;4970767;28;20046;-76
2022/05/30 01:23:09;;;;;;;1.95;0.32;;;;;;;6.26;52.52;101195.88;4933402;29;20059;-77
2022/05/30 01:27:19;;;;;;;1.23;0.20;;;;;;;6.22;53.08;101196.84;4906805;29;20130;-77
2022/05/30 01:30:20;;;;;;;3.45;0.30;;;;;;;6.28;53.20;101200.22;4910766;29;20051;-79
2022/05/30 01:34:41;;;;;;;2.83;0.20;;;;;;;6.05;54.36;101190.16;4878143;29;20067;-76
2022/05/30 01:41:57;;;;;;;1.48;0.28;;;;;;;6.19;54.39;101181.31;4802539;29;20088;-77
2022/05/30 01:56:25;;;;;;;1.25;0.13;;;;;;;6.69;52.90;101184.78;4903169;29;20079;-77
2022/05/30 02:00:43;;;;;;;2.05;0.10;;;;;;;6.73;52.95;101180.38;4884984;29;20060;-77
2022/05/30 02:23:16;;;;;;;7.93;0.52;;;;;;;6.71;53.97;101190.81;4755551;30;20070;-76
2022/05/30 02:46:20;;;;;;;1.13;0.30;;;;;;;7.00;52.87;101173.78;4848073;29;20082;-77
2022/05/30 03:09:18;;;;;;;2.05;0.10;;;;;;;7.07;52.48;101183.19;4884904;29;20080;-76
2022/05/30 03:16:06;;;;;;;2.67;0.30;;;;;;;6.90;52.44;101181.75;4895703;29;20034;-77
2022/05/30 03:30:47;;;;;;;0.73;0.20;;;;;;;6.68;52.67;101183.91;4969926;28;20065;-77
2022/05/30 03:38:57;;;;;;;1.30;0.20;;;;;;;6.70;53.02;101181.28;4926809;29;20050;-76
2022/05/30 03:42:27;;;;;;;2.97;0.20;;;;;;;6.78;52.89;101184.63;4941763;29;20082;-75
2022/05/30 03:53:55;;;;;;;2.70;0.30;;;;;;;6.95;52.04;101197.25;4774821;29;20086;-76
2022/05/30 04:01:32;;;;;;;1.55;0.35;;;;;;;6.31;53.57;101191.53;4764428;30;20059;-79
2022/05/30 04:04:12;;;;;;;2.67;0.40;;;;;;;6.97;52.83;101184.25;4771310;29;21527;-78
2022/05/30 04:06:54;;;;;;;3.28;0.60;;;;;;;7.25;52.00;101187.16;4781108;29;20039;-77
2022/05/30 04:25:34;;;;;;;0.80;0.43;;;;;;;7.51;52.08;101184.84;4848504;29;20082;-79
2022/05/30 04:29:38;;;;;;;5.22;0.20;;;;;;;7.06;52.62;101189.25;4846637;29;20141;-79
2022/05/30 04:32:47;;;;;;;1.95;0.43;;;;;;;7.28;52.23;101200.91;4835499;29;20060;-78
2022/05/30 04:35:15;;;;;;;4.65;0.43;;;;;;;7.39;52.26;101198.09;4859752;29;20040;-80
2022/05/30 04:37:41;;;;;;;3.22;0.38;;;;;;;7.51;52.15;101194.38;4961357;28;20416;-78
2022/05/30 04:40:27;;;;;;;8.02;0.30;;;;;;;7.48;52.24;101192.69;4961579;28;20046;-81
2022/05/30 04:43:24;;;;;;;3.33;0.22;;;;;;;7.18;52.80;101198.56;4904018;28;20036;-78
2022/05/30 04:46:19;;;;;;;3.72;0.35;;;;;;;6.89;53.08;101187.84;4966877;28;20133;-77
2022/05/30 04:48:49;;;;;;;0.82;0.20;;;;;;;7.01;53.13;101204.94;4950153;28;20471;-76
2022/05/30 04:51:15;;;;;;;3.25;0.30;;;;;;;6.77;53.55;101201.06;4953461;28;20327;-79
2022/05/30 04:53:41;;;;;;;3.33;0.50;;;;;;;7.29;52.94;101200.06;4950762;28;20811;-78
2022/05/30 04:56:26;;;;;;;2.30;0.40;;;;;;;7.63;52.49;101203.69;4978980;28;20900;-78
2022/05/30 04:59:15;;;;;;;3.50;0.38;;;;;;;7.36;51.65;101211.19;4963044;28;20442;-77
2022/05/30 05:01:55;;;;;;;3.67;0.40;;;;;;;7.48;51.62;101212.66;4971813;28;20043;-77
2022/05/30 05:04:23;;;;;;;2.22;0.25;;;;;;;7.78;51.33;101212.88;4965291;28;20543;-77
2022/05/30 05:06:49;;;;;;;3.22;0.70;;;;;;;7.94;51.69;101214.25;4966667;28;20081;-77
2022/05/30 05:09:16;;;;;;;5.75;0.60;;;;;;;7.95;51.00;101218.56;4972568;28;20043;-77
2022/05/30 05:12:20;;;;;;;2.97;0.45;;;;;;;8.09;50.65;101213.91;4972322;28;20043;-77
2022/05/30 05:14:51;;;;;;;3.30;0.38;;;;;;;8.13;49.89;101215.50;4973090;28;20039;-77
2022/05/30 05:17:47;;;;;;;3.38;0.30;;;;;;;8.41;49.95;101216.59;4963099;28;20046;-76
2022/05/30 05:20:14;;;;;;;2.63;0.40;;;;;;;8.35;49.49;101218.44;4980915;28;20023;-78
2022/05/30 05:22:55;;;;;;;4.50;0.68;;;;;;;8.26;49.68;101220.44;4971800;28;20073;-77
2022/05/30 05:25:41;;;;;;;1.10;0.20;;;;;;;8.44;50.24;101222.56;4968333;28;20115;-75
2022/05/30 05:32:43;;;;;;;3.28;0.40;;;;;;;8.44;49.25;101227.78;4879331;29;20052;-79
2022/05/30 05:35:10;;;;;;;1.05;0.20;;;;;;;8.44;49.58;101238.19;4878339;29;20101;-77
2022/05/30 05:37:36;;;;;;;4.32;0.30;;;;;;;8.27;48.97;101227.34;4915976;29;20064;-78
2022/05/30 05:41:06;;;;;;;5.20;0.50;;;;;;;8.22;49.51;101226.59;4916040;29;20039;-77
2022/05/30 07:00:16;;;;;;;2.33;0.30;;;;;;;17.24;30.37;101242.97;4968585;28;20065;-77
2022/05/30 07:04:37;;;;;;;0.47;0.10;;;;;;;17.84;28.26;101237.41;4898209;29;20086;-79
2022/05/30 07:11:36;;;;;;;0.85;0.20;;;;;;;20.25;25.85;101237.44;4953064;28;20099;-78
2022/05/30 07:14:46;;;;;;;0.50;0.45;;;;;;;19.49;24.72;101242.09;4890886;29;20139;-79
2022/05/30 07:17:15;;;;;;;0.30;0.10;;;;;;;20.52;24.08;101240.63;4969640;28;20100;-78
2022/05/30 07:19:41;;;;;;;0.82;0.10;;;;;;;22.25;21.80;101242.84;4945056;28;20165;-77
2022/05/30 07:22:12;;;;;;;0.20;0.07;;;;;;;23.92;21.21;101230.91;4941942;28;20413;-77
2022/05/30 07:24:56;;;;;;;1.27;0.20;;;;;;;25.51;18.58;101240.88;4957743;28;20508;-77
2022/05/30 07:27:57;;;;;;;1.55;0.43;;;;;;;23.24;19.84;101240.59;4931153;28;21467;-78
2022/05/30 07:30:41;;;;;;;1.85;0.45;;;;;;;23.53;20.24;101246.88;4971199;28;20896;-76
2022/05/30 07:33:25;;;;;;;1.30;0.10;;;;;;;22.98;20.03;101247.22;4957129;28;20094;-78
2022/05/30 07:36:13;;;;;;;3.08;0.22;;;;;;;22.41;21.85;101251.25;4962125;28;20042;-79
2022/05/30 07:39:18;;;;;;;0.57;0.20;;;;;;;18.80;24.63;101255.72;4909146;29;20052;-77
2022/05/30 07:42:05;;;;;;;3.33;0.13;;;;;;;16.06;27.96;101252.66;4887996;29;20194;-81
2022/05/30 07:44:46;;;;;;;1.98;0.10;;;;;;;17.46;26.46;101255.69;4944647;28;20121;-79
2022/05/30 07:47:36;;;;;;;1.38;0.10;;;;;;;20.64;24.60;101256.59;4951678;28;20485;-78
2022/05/30 07:50:27;;;;;;;0.32;0.10;;;;;;;21.33;22.01;101244.09;4940558;28;20042;-77
2022/05/30 07:53:01;;;;;;;0.40;0.10;;;;;;;18.24;25.86;101253.31;4978218;28;20043;-79
2022/05/30 07:55:39;;;;;;;2.65;0.20;;;;;;;15.74;28.92;101252.66;4960540;28;20043;-77
2022/05/30 07:58:06;;;;;;;5.60;0.30;;;;;;;14.96;30.87;101250.66;4959549;28;20043;-78
2022/05/30 08:00:35;;;;;;;3.60;1.05;;;;;;;14.50;32.02;101252.19;4950923;28;20027;-80
2022/05/30 08:03:14;;;;;;;0.98;0.22;;;;;;;13.93;33.63;101254.97;4948668;28;20038;-76
2022/05/30 08:05:50;;;;;;;1.27;0.30;;;;;;;12.87;34.87;101257.16;4959676;28;20043;-77
2022/05/30 08:08:34;;;;;;;3.22;0.10;;;;;;;12.69;35.89;101257.06;4972861;28;20141;-79
2022/05/30 08:11:00;;;;;;;5.50;0.73;;;;;;;12.16;37.27;101265.34;4975687;28;20585;-78
2022/05/30 08:13:29;;;;;;;3.40;0.10;;;;;;;12.07;36.65;101270.97;4936314;28;20053;-79
2022/05/30 08:15:59;;;;;;;0.63;0.10;;;;;;;12.00;37.60;101266.84;4954740;28;20030;-79
2022/05/30 08:18:31;;;;;;;0.75;0.10;;;;;;;11.80;38.84;101263.28;4952290;28;20102;-79
2022/05/30 08:21:01;;;;;;;2.03;0.20;;;;;;;12.03;38.11;101262.34;4946968;28;20042;-78
2022/05/30 08:23:28;;;;;;;0.57;0.10;;;;;;;12.28;37.06;101271.84;4947843;28;20043;-77
2022/05/30 08:25:57;;;;;;;3.50;0.10;;;;;;;12.06;37.79;101271.84;4974385;28;20042;-80
2022/05/30 08:28:26;;;;;;;0.98;0.10;;;;;;;11.64;38.48;101265.59;4957462;28;20118;-76
2022/05/30 08:30:52;;;;;;;2.50;0.10;;;;;;;11.97;36.47;101267.00;4969357;28;20962;-77
2022/05/30 08:33:36;;;;;;;1.67;0.10;;;;;;;12.17;37.09;101268.81;4956718;28;20113;-77
2022/05/30 08:36:17;;;;;;;0.93;0.10;;;;;;;12.69;37.90;101261.41;4961344;28;20141;-79
2022/05/30 08:38:45;;;;;;;1.08;0.10;;;;;;;13.20;35.67;101267.09;4942649;28;20755;-79
2022/05/30 08:41:46;;;;;;;2.13;0.20;;;;;;;13.31;35.66;101264.81;4971093;28;20039;-77
2022/05/30 08:44:35;;;;;;;0.40;0.03;;;;;;;13.06;35.44;101265.94;4930730;28;20042;-78
2022/05/30 08:47:38;;;;;;;0.73;0.00;;;;;;;13.30;33.87;101268.38;4954427;28;20035;-80
2022/05/30 08:50:13;;;;;;;0.82;0.13;;;;;;;12.68;34.96;101262.31;4973969;28;20035;-78
2022/05/30 08:53:09;;;;;;;2.28;0.35;;;;;;;12.52;35.33;101270.00;4968370;28;20038;-79
2022/05/30 08:55:45;;;;;;;0.52;0.10;;;;;;;13.44;34.62;101265.97;4938436;28;20050;-77
2022/05/30 08:58:48;;;;;;;2.17;0.10;;;;;;;15.09;32.30;101271.94;4954819;28;20434;-78
2022/05/30 09:01:20;;;;;;;0.65;0.40;;;;;;;16.59;29.60;101267.16;4926970;28;20565;-79
2022/05/30 09:04:24;;;;;;;1.20;0.32;;;;;;;16.72;29.69;101269.91;4929528;28;20043;-78
2022/05/30 09:06:56;;;;;;;2.47;1.30;;;;;;;16.11;29.64;101274.38;4969080;28;20035;-80
2022/05/30 09:09:37;;;;;;;0.35;0.10;;;;;;;15.22;30.70;101276.59;4938470;28;20046;-77
2022/05/30 09:12:27;;;;;;;2.25;0.00;;;;;;;14.09;33.08;101273.47;4951217;28;20032;-79
2022/05/30 09:15:34;;;;;;;0.75;0.00;;;;;;;13.66;34.14;101280.78;4940496;28;20196;-78
2022/05/30 09:18:04;;;;;;;0.32;0.00;;;;;;;14.65;33.22;101272.47;4967665;28;20051;-80
2022/05/30 09:20:31;;;;;;;4.18;0.20;;;;;;;15.16;32.24;101270.69;4956467;28;20043;-77
2022/05/30 09:23:01;;;;;;;1.63;0.17;;;;;;;16.08;29.51;101274.53;4937387;28;20118;-78
2022/05/30 09:25:57;;;;;;;3.30;0.55;;;;;;;15.47;31.96;101271.69;4953675;28;20304;-79
2022/05/30 09:28:51;;;;;;;1.50;0.10;;;;;;;16.04;30.22;101280.91;4962364;28;20042;-78
2022/05/30 09:32:19;;;;;;;3.75;0.20;;;;;;;15.37;30.86;101278.38;4955461;28;20568;-77
2022/05/30 09:35:24;;;;;;;1.23;0.63;;;;;;;16.23;30.15;101278.91;4918286;28;20041;-78
2022/05/30 09:38:19;;;;;;;1.45;0.10;;;;;;;16.01;30.11;101276.66;4954909;28;20046;-77
2022/05/30 09:40:57;;;;;;;1.02;0.22;;;;;;;15.73;30.03;101277.34;4965888;28;20453;-78
2022/05/30 09:43:52;;;;;;;2.20;0.15;;;;;;;15.63;30.99;101281.41;4943154;28;20078;-79
2022/05/30 09:46:38;;;;;;;0.73;0.10;;;;;;;16.28;28.84;101284.78;4961373;28;20038;-78
2022/05/30 09:49:38;;;;;;;0.40;0.03;;;;;;;16.93;27.85;101275.72;4969511;28;20061;-79
2022/05/30 09:52:26;;;;;;;1.27;0.10;;;;;;;16.71;28.17;101284.91;4948088;28;20603;-78
2022/05/30 09:54:54;;;;;;;3.60;0.10;;;;;;;15.48;29.05;101277.81;4935955;28;20035;-79
2022/05/30 09:57:27;;;;;;;2.30;0.10;;;;;;;15.63;30.25;101282.25;4967658;28;20078;-80
2022/05/30 10:00:18;;;;;;;0.32;0.00;;;;;;;15.83;30.06;101294.31;4955454;28;20031;-79
2022/05/30 10:03:11;;;;;;;2.30;0.10;;;;;;;15.56;31.09;101289.63;4957259;28;20518;-78
2022/05/30 10:05:39;;;;;;;2.65;0.30;;;;;;;15.78;30.49;101299.84;4960234;28;20136;-77
2022/05/30 10:08:30;;;;;;;2.60;0.40;;;;;;;14.88;31.98;101291.47;4969966;28;20050;-77
2022/05/30 10:11:04;;;;;;;3.28;0.20;;;;;;;14.68;31.04;101298.63;4956191;28;20521;-80
2022/05/30 10:13:37;;;;;;;0.95;0.15;;;;;;;14.43;31.65;101298.97;4944514;28;20050;-78
2022/05/30 10:16:33;;;;;;;0.45;0.10;;;;;;;14.00;33.75;101292.31;4954113;28;20049;-78
2022/05/30 10:19:04;;;;;;;1.90;0.10;;;;;;;14.08;34.71;101298.91;4930897;28;20782;-77
2022/05/30 10:28:14;;;;;;;0.47;0.10;;;;;;;13.45;35.02;101308.81;4967192;28;20784;-78
2022/05/30 10:31:20;;;;;;;1.13;0.22;;;;;;;13.59;35.84;101313.50;4965560;28;20620;-78
2022/05/30 10:34:15;;;;;;;1.67;0.13;;;;;;;13.63;36.27;101322.94;4954966;28;20130;-80
2022/05/30 10:36:47;;;;;;;0.40;0.10;;;;;;;14.11;34.86;101316.31;4956353;28;20041;-77
2022/05/30 10:39:13;;;;;;;0.43;0.10;;;;;;;13.94;35.10;101322.34;4967909;28;20773;-79
2022/05/30 10:41:47;;;;;;;2.40;0.30;;;;;;;14.36;33.93;101319.44;4968160;28;20043;-79
2022/05/30 10:44:26;;;;;;;1.15;0.10;;;;;;;14.53;34.24;101323.06;4937925;28;20324;-81
2022/05/30 10:47:16;;;;;;;1.40;0.10;;;;;;;15.64;32.41;101317.34;4952182;28;20031;-77
2022/05/30 10:49:52;;;;;;;2.25;0.57;;;;;;;16.04;29.89;101320.44;4966180;28;20070;-78
2022/05/30 10:52:26;;;;;;;0.70;0.38;;;;;;;16.52;29.73;101314.16;4937559;28;20053;-80
2022/05/30 10:55:04;;;;;;;0.82;0.00;;;;;;;16.87;28.74;101318.31;4967996;28;20022;-77
2022/05/30 10:57:42;;;;;;;0.63;0.05;;;;;;;17.18;28.70;101317.31;4955322;28;20046;-79
2022/05/30 11:00:15;;;;;;;1.55;0.10;;;;;;;17.70;27.52;101318.56;4958691;28;20030;-78
2022/05/30 11:02:53;;;;;;;0.65;0.00;;;;;;;16.82;28.54;101324.75;4961771;28;20049;-77
2022/05/30 11:05:30;;;;;;;0.82;0.20;;;;;;;17.16;28.22;101329.78;4960116;28;20042;-76
2022/05/30 11:08:24;;;;;;;2.17;0.08;;;;;;;16.18;29.22;101331.94;4939469;28;20121;-78
2022/05/30 11:11:06;;;;;;;1.38;0.10;;;;;;;15.73;30.85;101332.69;4953005;28;20027;-77
2022/05/30 11:13:43;;;;;;;2.55;0.10;;;;;;;14.91;33.32;101336.06;4937535;28;20043;-77
2022/05/30 11:16:31;;;;;;;1.85;0.10;;;;;;;13.97;35.78;101338.00;4955705;28;20102;-79
2022/05/30 11:19:42;;;;;;;1.27;0.08;;;;;;;12.95;36.12;101346.03;4944588;28;20061;-78
2022/05/30 11:22:47;;;;;;;1.20;0.20;;;;;;;12.72;39.41;101345.25;4964676;28;20054;-79
2022/05/30 11:25:36;;;;;;;1.70;0.20;;;;;;;12.99;38.81;101337.97;4981065;28;20031;-77
2022/05/30 11:28:36;;;;;;;1.90;0.10;;;;;;;13.25;39.57;101336.84;4964620;28;20046;-77
2022/05/30 11:31:18;;;;;;;0.93;0.10;;;;;;;13.65;38.81;101344.72;4962052;28;20148;-79
2022/05/30 11:38:09;;;;;;;0.63;0.00;;;;;;;14.25;38.17;101350.66;4948266;28;20519;-77
2022/05/30 11:41:25;;;;;;;0.20;0.00;;;;;;;14.68;37.19;101345.13;4956044;28;20031;-78
2022/05/30 11:45:00;;;;;;;3.70;0.10;;;;;;;15.58;32.72;101342.25;4966176;28;20053;-77
2022/05/30 11:48:43;;;;;;;0.60;0.10;;;;;;;16.56;28.81;101335.94;4962654;28;21128;-76
2022/05/30 11:51:27;;;;;;;0.45;0.00;;;;;;;16.62;29.34;101338.22;4967076;28;20041;-79
2022/05/30 11:53:56;;;;;;;0.63;0.17;;;;;;;17.73;28.27;101334.22;4954354;28;20051;-79
2022/05/30 11:56:37;;;;;;;0.68;0.03;;;;;;;18.00;27.81;101342.19;4972299;28;20086;-75
2022/05/30 11:59:03;;;;;;;0.30;0.00;;;;;;;18.50;26.02;101329.28;4964337;28;20051;-77
2022/05/30 12:01:36;;;;;;;0.32;0.00;;;;;;;17.87;24.64;101336.81;4976415;28;20189;-80
2022/05/30 12:05:53;;;;;;;1.08;0.10;;;;;;;16.13;27.29;101346.28;4937324;28;20062;-79
2022/05/30 12:08:24;;;;;;;1.40;0.17;;;;;;;15.65;29.89;101345.41;4972747;28;20047;-79
2022/05/30 12:11:15;;;;;;;3.90;0.20;;;;;;;14.64;31.29;101339.16;4970916;28;20036;-77
2022/05/30 12:13:55;;;;;;;0.65;0.10;;;;;;;14.08;32.47;101346.22;4957753;28;20063;-78
2022/05/30 12:16:27;;;;;;;0.13;0.00;;;;;;;14.36;31.82;101351.00;4963899;28;20031;-79
2022/05/30 12:24:41;;;;;;;1.48;0.17;;;;;;;13.94;32.85;101349.50;4976340;28;20039;-79
2022/05/30 12:27:30;;;;;;;1.65;0.10;;;;;;;14.01;32.85;101350.06;4947214;28;20066;-78
2022/05/30 12:30:54;;;;;;;0.28;0.10;;;;;;;14.36;32.18;101344.88;4968519;28;20070;-80
2022/05/30 12:33:29;;;;;;;4.38;0.10;;;;;;;14.25;32.55;101348.03;4901672;29;20203;-75
2022/05/30 12:36:10;;;;;;;0.47;0.00;;;;;;;14.23;33.35;101351.66;4906609;29;20355;-77
2022/05/30 12:38:49;;;;;;;1.48;0.03;;;;;;;14.13;31.78;101349.47;4944441;28;20986;-77
2022/05/30 12:41:19;;;;;;;2.28;0.20;;;;;;;14.10;32.55;101354.06;4979773;28;20030;-78
2022/05/30 12:44:45;;;;;;;0.38;0.00;;;;;;;14.41;31.25;101347.31;4969440;28;20626;-78
2022/05/30 12:47:17;;;;;;;1.85;0.10;;;;;;;15.12;31.01;101350.75;4966345;28;20055;-76
2022/05/30 12:49:48;;;;;;;2.83;0.32;;;;;;;15.05;29.86;101346.75;4962384;28;20038;-78
2022/05/30 12:52:14;;;;;;;;;;;;;;;15.16;30.72;101360.19;4963911;28;20046;-79
2022/05/30 12:55:01;;;;;;;4.00;0.88;;;;;;;15.11;30.73;101362.22;4982707;28;19981;-78
2022/05/30 12:57:44;;;;;;;1.33;0.10;;;;;;;15.16;29.98;101357.56;4980898;28;20102;-78
2022/05/30 13:00:21;;;;;;;4.07;0.10;;;;;;;15.25;31.58;101361.53;4962084;28;20369;-75
2022/05/30 13:02:53;;;;;;;1.33;0.10;;;;;;;15.45;29.60;101368.41;4977240;28;20594;-78
2022/05/30 13:05:38;;;;;;;2.83;0.10;;;;;;;15.21;29.98;101359.09;4978962;28;20742;-80
2022/05/30 13:08:42;;;;;;;0.55;0.10;;;;;;;15.14;30.08;101364.69;4976691;28;20042;-78
2022/05/30 13:11:38;;;;;;;1.55;0.10;;;;;;;14.76;31.48;101364.84;4980566;28;20042;-79
2022/05/30 13:14:43;;;;;;;1.95;0.10;;;;;;;13.78;33.05;101374.78;4948824;28;20039;-79
2022/05/30 13:17:23;;;;;;;3.58;0.20;;;;;;;13.80;32.99;101367.66;4943477;28;20039;-77
2022/05/30 13:19:50;;;;;;;0.30;0.03;;;;;;;13.71;33.03;101373.34;4979287;28;20043;-78
2022/05/30 13:22:24;;;;;;;1.42;0.10;;;;;;;13.57;33.66;101378.38;4975682;28;20051;-78
2022/05/30 13:25:04;;;;;;;2.33;0.20;;;;;;;13.49;34.64;101378.69;4968617;28;20031;-77
2022/05/30 13:28:27;;;;;;;1.38;0.40;;;;;;;13.69;33.83;101377.81;4960823;28;20043;-77
2022/05/30 13:30:55;;;;;;;0.28;0.10;;;;;;;13.40;33.96;101385.19;4969176;28;20091;-78
2022/05/30 13:34:00;;;;;;;1.35;0.30;;;;;;;12.55;35.77;101390.47;4961267;28;20449;-78
2022/05/30 13:36:30;;;;;;;12.63;0.63;;;;;;;12.40;37.25;101393.69;4960787;28;20078;-78
2022/05/30 13:38:56;;;;;;;2.78;0.40;;;;;;;12.50;38.63;101392.44;4978912;28;20046;-78
2022/05/30 13:41:22;;;;;;;2.92;0.20;;;;;;;12.62;40.32;101393.69;4969420;28;20036;-77
2022/05/30 13:47:45;;;;;;;0.70;0.40;;;;;;;13.77;37.78;101399.34;4949577;28;20073;-75
2022/05/30 13:50:19;;;;;;;5.80;0.10;;;;;;;13.91;36.21;101396.94;4984653;28;20049;-78
2022/05/30 13:52:46;;;;;;;1.00;0.10;;;;;;;14.23;36.82;101397.25;4965850;28;20058;-79
2022/05/30 13:56:01;;;;;;;1.27;0.20;;;;;;;14.59;36.02;101388.53;4962871;28;20073;-76
2022/05/30 13:58:31;;;;;;;0.85;0.10;;;;;;;14.99;34.42;101386.53;4962709;28;20039;-76
2022/05/30 14:01:04;;;;;;;10.82;3.47;;;;;;;15.85;33.95;101386.50;4961679;28;20063;-77
2022/05/30 14:04:02;;;;;;;6.45;0.32;;;;;;;16.02;33.42;101394.38;4956091;28;20050;-78
2022/05/30 14:06:37;;;;;;;0.73;0.20;;;;;;;15.61;32.43;101386.88;4970136;28;20046;-75
2022/05/30 14:09:08;;;;;;;0.50;0.10;;;;;;;15.37;31.57;101391.63;4949958;28;20210;-78
2022/05/30 14:11:41;;;;;;;2.97;0.20;;;;;;;15.51;31.61;101394.41;4938085;28;20113;-76
2022/05/30 14:14:06;;;;;;;5.55;0.30;;;;;;;15.31;31.14;101386.72;4935789;28;20039;-78
2022/05/30 14:16:40;;;;;;;0.40;0.40;;;;;;;14.89;32.10;101390.56;4966835;28;20763;-77
2022/05/30 14:19:31;;;;;;;0.95;0.10;;;;;;;15.46;31.01;101388.56;4946992;28;20405;-79
2022/05/30 14:22:21;;;;;;;0.63;0.00;;;;;;;16.23;31.04;101389.69;4945900;28;20150;-78
2022/05/30 14:25:03;;;;;;;2.40;0.10;;;;;;;15.87;30.10;101387.25;4929693;28;20050;-79
2022/05/30 14:27:35;;;;;;;0.55;0.00;;;;;;;15.67;31.54;101385.72;4931783;28;20057;-76
2022/05/30 14:30:09;;;;;;;1.20;0.10;;;;;;;15.28;30.46;101386.84;4925965;28;20113;-80
2022/05/30 14:32:37;;;;;;;2.38;0.00;;;;;;;15.01;31.07;101389.94;4941713;28;20043;-78
2022/05/30 14:35:07;;;;;;;1.15;0.10;;;;;;;14.66;31.01;101387.31;4942087;28;20030;-78
2022/05/30 14:37:50;;;;;;;0.40;0.10;;;;;;;14.32;31.49;101391.53;4957801;28;20046;-80
2022/05/30 14:40:26;;;;;;;2.30;0.10;;;;;;;13.87;32.80;101392.72;4958766;28;20112;-78
2022/05/30 14:42:55;;;;;;;0.68;0.10;;;;;;;14.36;32.42;101387.81;4955288;28;20047;-78
2022/05/30 14:45:36;;;;;;;0.77;0.10;;;;;;;13.98;32.56;101392.25;4928322;28;20067;-77
2022/05/30 14:48:10;;;;;;;1.45;0.10;;;;;;;14.17;33.48;101392.25;4954551;28;20090;-79
2022/05/30 14:50:56;;;;;;;1.05;0.10;;;;;;;14.85;32.60;101389.00;4946602;28;20027;-78
2022/05/30 14:53:28;;;;;;;0.52;0.10;;;;;;;15.22;31.15;101395.09;4946427;28;22512;-78
2022/05/30 14:55:58;;;;;;;1.95;0.10;;;;;;;15.00;31.62;101401.41;4952949;28;20037;-80
2022/05/30 14:58:27;;;;;;;0.15;0.10;;;;;;;14.74;31.28;101403.53;4959742;28;20149;-78
2022/05/30 15:00:58;;;;;;;1.60;0.10;;;;;;;14.57;31.06;101400.91;4950843;28;20505;-77
2022/05/30 15:06:12;;;;;;;2.15;0.52;;;;;;;14.53;31.25;101410.72;4953656;28;20034;-79
2022/05/30 15:08:40;;;;;;;0.38;0.10;;;;;;;14.25;32.19;101405.03;4953625;28;20468;-75
2022/05/30 15:11:15;;;;;;;0.20;0.00;;;;;;;13.99;32.48;101404.47;4944294;28;20086;-76
2022/05/30 15:13:46;;;;;;;5.35;0.10;;;;;;;13.93;31.85;101397.72;4953708;28;20461;-79
2022/05/30 15:16:12;;;;;;;0.93;0.08;;;;;;;14.03;32.33;101399.91;4942083;28;20034;-78
2022/05/30 15:18:37;;;;;;;3.67;0.20;;;;;;;13.85;33.28;101405.13;4924211;28;20042;-77
2022/05/30 15:21:03;;;;;;;0.40;0.00;;;;;;;13.89;33.36;101401.41;4925095;28;20023;-79
2022/05/30 15:23:29;;;;;;;0.98;0.00;;;;;;;13.68;33.13;101415.53;4925265;28;20038;-77
2022/05/30 15:25:55;;;;;;;0.70;0.10;;;;;;;13.45;33.36;101412.13;4939772;28;20049;-77
2022/05/30 15:28:22;;;;;;;1.58;0.32;;;;;;;13.28;34.71;101414.59;4945830;28;20074;-76
2022/05/30 15:30:50;;;;;;;0.40;0.10;;;;;;;13.24;35.76;101420.91;4944823;28;20158;-80
2022/05/30 15:33:16;;;;;;;2.25;0.10;;;;;;;13.18;35.30;101415.91;4921980;28;20034;-74
2022/05/30 15:35:42;;;;;;;1.63;0.10;;;;;;;12.99;35.38;101416.69;4932505;28;20039;-75
2022/05/30 15:38:08;;;;;;;1.42;0.00;;;;;;;13.42;34.58;101412.22;4951938;28;20807;-77
2022/05/30 15:40:37;;;;;;;1.85;0.25;;;;;;;13.36;34.76;101412.53;4967879;28;20069;-79
2022/05/30 15:43:04;;;;;;;0.90;0.20;;;;;;;12.92;35.52;101415.25;4953195;28;20051;-76
2022/05/30 15:45:34;;;;;;;0.43;0.00;;;;;;;13.27;34.74;101412.88;4958571;28;20952;-79
2022/05/30 15:48:01;;;;;;;0.63;0.10;;;;;;;13.18;34.69;101410.66;4963230;28;20113;-77
2022/05/30 15:50:30;;;;;;;2.00;0.10;;;;;;;12.98;35.62;101416.75;4953328;28;20730;-78
2022/05/30 15:58:28;;;;;;;2.28;0.10;;;;;;;12.90;34.95;101424.94;4965894;28;20062;-78
2022/05/30 16:00:54;;;;;;;2.45;0.25;;;;;;;12.84;35.30;101423.41;4957625;28;20640;-79
2022/05/30 16:03:23;;;;;;;2.83;0.32;;;;;;;12.84;35.18;101427.81;4934508;28;20986;-77
2022/05/30 16:05:49;;;;;;;2.08;0.70;;;;;;;12.51;35.90;101420.34;4957284;28;20053;-78
2022/05/30 16:08:25;;;;;;;3.33;0.20;;;;;;;12.49;36.26;101422.16;4967396;28;20161;-76
2022/05/30 16:10:50;;;;;;;2.78;0.43;;;;;;;12.64;36.50;101425.97;4951860;28;20038;-78
2022/05/30 16:13:17;;;;;;;2.30;0.10;;;;;;;12.60;35.98;101424.38;4955075;28;20043;-78
2022/05/30 16:15:43;;;;;;;2.03;0.20;;;;;;;12.58;35.75;101427.06;4967400;28;20130;-78
2022/05/30 16:18:09;;;;;;;4.15;0.30;;;;;;;12.61;35.81;101431.34;4954646;28;20035;-76
2022/05/30 16:20:35;;;;;;;4.88;0.20;;;;;;;12.67;35.97;101426.69;4939010;28;20031;-77
2022/05/30 16:23:01;;;;;;;3.65;0.47;;;;;;;12.63;36.44;101427.72;4953162;28;20117;-77
2022/05/30 16:25:27;;;;;;;1.17;0.20;;;;;;;12.79;35.99;101421.91;4959940;28;20035;-79
2022/05/30 16:27:58;;;;;;;5.32;0.20;;;;;;;12.81;36.31;101422.69;4957704;28;20039;-78
2022/05/30 16:30:24;;;;;;;3.00;0.10;;;;;;;12.87;35.95;101422.44;4956104;28;20122;-77
2022/05/30 16:32:50;;;;;;;5.35;0.40;;;;;;;13.03;35.67;101418.28;4953563;28;20673;-77
2022/05/30 16:35:17;;;;;;;2.10;0.20;;;;;;;12.99;35.79;101415.84;4939020;28;20557;-78
2022/05/30 16:37:44;;;;;;;1.80;0.10;;;;;;;12.98;35.67;101417.63;4956161;28;20089;-77
2022/05/30 16:40:21;;;;;;;2.22;0.43;;;;;;;12.77;35.91;101413.25;4969975;28;20162;-79
2022/05/30 16:42:47;;;;;;;1.95;0.20;;;;;;;12.58;36.26;101421.81;4949662;28;20067;-79
2022/05/30 16:45:13;;;;;;;1.95;0.10;;;;;;;12.92;35.98;101412.63;4949522;28;20066;-76
2022/05/30 16:47:39;;;;;;;3.20;0.32;;;;;;;12.82;36.41;101417.38;4957388;28;20050;-77
2022/05/30 16:50:05;;;;;;;0.98;0.30;;;;;;;12.69;36.49;101427.53;4963778;28;20019;-77
2022/05/30 16:52:31;;;;;;;7.18;0.43;;;;;;;12.49;36.99;101419.53;4968537;28;20045;-79
2022/05/30 16:54:59;;;;;;;1.20;0.15;;;;;;;12.58;36.81;101423.56;4973011;28;20038;-77
2022/05/30 16:57:25;;;;;;;3.10;0.20;;;;;;;12.61;36.78;101426.94;4943448;28;20629;-78
2022/05/30 16:59:51;;;;;;;5.43;0.30;;;;;;;12.59;35.92;101425.28;4946557;28;20039;-78
2022/05/30 17:02:17;;;;;;;2.28;0.20;;;;;;;12.73;35.88;101424.78;4941379;28;20047;-78
2022/05/30 17:04:42;;;;;;;0.88;0.10;;;;;;;12.88;35.79;101419.75;4945020;28;20045;-76
2022/05/30 17:07:08;;;;;;;3.88;0.10;;;;;;;12.97;35.75;101423.75;4973012;28;20105;-77
2022/05/30 17:09:34;;;;;;;0.68;0.10;;;;;;;13.11;35.36;101417.94;4949839;28;20039;-81
2022/05/30 17:12:00;;;;;;;0.68;0.20;;;;;;;13.01;35.15;101420.09;4944865;28;20046;-78
2022/05/30 17:14:28;;;;;;;0.50;0.20;;;;;;;12.79;35.28;101424.53;4931485;28;20070;-80
2022/05/30 17:16:54;;;;;;;2.47;0.50;;;;;;;12.31;37.40;101428.13;4945877;28;20031;-77
2022/05/30 17:19:21;;;;;;;1.98;0.60;;;;;;;12.00;41.03;101432.78;4932866;28;20042;-77
2022/05/30 17:21:50;;;;;;;2.35;0.28;;;;;;;11.63;42.86;101428.84;4944053;28;20065;-78
2022/05/30 17:24:16;;;;;;;1.70;0.60;;;;;;;11.53;43.78;101431.81;4947250;28;20043;-77
2022/05/30 17:29:52;;;;;;;2.40;0.90;;;;;;;11.50;44.40;101431.94;4906040;28;20131;-76